sensor_id;sensor_type;location;lat;lon;timestamp;pressure;altitude;pressure_sealevel;temperature;humidity
45523;BME280;31254;51.680;5.394;2022-07-22T00:00:28;102208.25;;;17.28;82.95
45523;BME280;31254;51.680;5.394;2022-07-22T00:02:55;102203.63;;;17.28;82.92
45523;BME280;31254;51.680;5.394;2022-07-22T00:05:22;102202.22;;;17.24;82.94
45523;BME280;31254;51.680;5.394;2022-07-22T00:07:49;102205.88;;;17.33;83.23
45523;BME280;31254;51.680;5.394;2022-07-22T00:10:15;102204.16;;;17.32;83.10
45523;BME280;31254;51.680;5.394;2022-07-22T00:12:42;102206.94;;;17.32;82.97
45523;BME280;31254;51.680;5.394;2022-07-22T00:15:11;102205.88;;;17.33;83.12
45523;BME280;31254;51.680;5.394;2022-07-22T00:17:38;102202.41;;;17.31;82.98
45523;BME280;31254;51.680;5.394;2022-07-22T00:20:06;102202.09;;;17.34;83.06
45523;BME280;31254;51.680;5.394;2022-07-22T00:22:33;102190.69;;;17.29;82.71
45523;BME280;31254;51.680;5.394;2022-07-22T00:25:00;102199.50;;;17.32;82.93
45523;BME280;31254;51.680;5.394;2022-07-22T00:27:26;102191.22;;;17.32;82.90
45523;BME280;31254;51.680;5.394;2022-07-22T00:29:53;102192.25;;;17.31;82.81
45523;BME280;31254;51.680;5.394;2022-07-22T00:32:20;102186.19;;;17.28;82.80
45523;BME280;31254;51.680;5.394;2022-07-22T00:34:47;102192.59;;;17.28;82.69
45523;BME280;31254;51.680;5.394;2022-07-22T00:37:16;102188.75;;;17.21;82.64
45523;BME280;31254;51.680;5.394;2022-07-22T00:39:42;102186.84;;;17.22;82.92
45523;BME280;31254;51.680;5.394;2022-07-22T00:42:09;102189.22;;;17.16;83.10
45523;BME280;31254;51.680;5.394;2022-07-22T00:44:40;102179.72;;;17.11;83.41
45523;BME280;31254;51.680;5.394;2022-07-22T00:47:07;102190.91;;;17.09;83.39
45523;BME280;31254;51.680;5.394;2022-07-22T00:49:34;102189.31;;;17.07;83.44
45523;BME280;31254;51.680;5.394;2022-07-22T00:52:03;102188.78;;;17.03;83.65
45523;BME280;31254;51.680;5.394;2022-07-22T00:54:32;102172.19;;;16.95;83.77
45523;BME280;31254;51.680;5.394;2022-07-22T00:56:59;102180.13;;;16.98;83.73
45523;BME280;31254;51.680;5.394;2022-07-22T00:59:25;102184.22;;;16.94;83.97
45523;BME280;31254;51.680;5.394;2022-07-22T01:01:52;102189.94;;;17.00;83.93
45523;BME280;31254;51.680;5.394;2022-07-22T01:04:21;102181.00;;;16.98;83.40
45523;BME280;31254;51.680;5.394;2022-07-22T01:06:51;102179.44;;;16.96;83.50
45523;BME280;31254;51.680;5.394;2022-07-22T01:09:20;102187.94;;;17.03;83.48
45523;BME280;31254;51.680;5.394;2022-07-22T01:11:47;102188.47;;;17.06;83.30
45523;BME280;31254;51.680;5.394;2022-07-22T01:14:14;102180.34;;;17.05;83.31
45523;BME280;31254;51.680;5.394;2022-07-22T01:16:43;102184.34;;;17.10;83.07
45523;BME280;31254;51.680;5.394;2022-07-22T01:19:15;102185.06;;;17.12;82.90
45523;BME280;31254;51.680;5.394;2022-07-22T01:21:41;102172.28;;;17.11;82.67
45523;BME280;31254;51.680;5.394;2022-07-22T01:24:08;102171.28;;;17.12;82.56
45523;BME280;31254;51.680;5.394;2022-07-22T01:26:35;102163.00;;;17.12;82.46
45523;BME280;31254;51.680;5.394;2022-07-22T01:29:03;102169.22;;;17.14;82.50
45523;BME280;31254;51.680;5.394;2022-07-22T01:31:30;102168.38;;;17.14;82.32
45523;BME280;31254;51.680;5.394;2022-07-22T01:33:57;102176.63;;;17.14;82.60
45523;BME280;31254;51.680;5.394;2022-07-22T01:36:24;102173.31;;;17.10;82.93
45523;BME280;31254;51.680;5.394;2022-07-22T01:38:50;102178.34;;;17.15;82.80
45523;BME280;31254;51.680;5.394;2022-07-22T01:41:17;102172.69;;;17.16;82.51
45523;BME280;31254;51.680;5.394;2022-07-22T01:43:44;102170.81;;;17.17;82.52
45523;BME280;31254;51.680;5.394;2022-07-22T01:46:11;102163.72;;;17.14;82.35
45523;BME280;31254;51.680;5.394;2022-07-22T01:48:38;102168.69;;;17.11;82.32
45523;BME280;31254;51.680;5.394;2022-07-22T01:51:05;102165.41;;;17.07;82.61
45523;BME280;31254;51.680;5.394;2022-07-22T01:53:32;102168.47;;;17.04;82.86
45523;BME280;31254;51.680;5.394;2022-07-22T01:55:58;102171.53;;;17.01;82.48
45523;BME280;31254;51.680;5.394;2022-07-22T01:58:25;102172.72;;;16.98;82.73
45523;BME280;31254;51.680;5.394;2022-07-22T02:00:54;102173.72;;;16.97;82.53
45523;BME280;31254;51.680;5.394;2022-07-22T02:03:21;102184.94;;;16.96;82.84
45523;BME280;31254;51.680;5.394;2022-07-22T02:05:47;102168.56;;;16.94;82.91
45523;BME280;31254;51.680;5.394;2022-07-22T02:08:16;102167.91;;;17.00;83.01
45523;BME280;31254;51.680;5.394;2022-07-22T02:10:43;102168.78;;;17.01;82.55
45523;BME280;31254;51.680;5.394;2022-07-22T02:13:10;102126.88;;;16.79;82.77
45523;BME280;31254;51.680;5.394;2022-07-22T02:15:37;102160.19;;;17.04;82.60
45523;BME280;31254;51.680;5.394;2022-07-22T02:18:14;102160.91;;;17.06;82.47
45523;BME280;31254;51.680;5.394;2022-07-22T02:20:43;102168.69;;;17.11;82.56
45523;BME280;31254;51.680;5.394;2022-07-22T02:23:10;102172.69;;;17.16;82.22
45523;BME280;31254;51.680;5.394;2022-07-22T02:25:41;102160.63;;;17.17;82.04
45523;BME280;31254;51.680;5.394;2022-07-22T02:28:08;102165.44;;;17.15;82.28
45523;BME280;31254;51.680;5.394;2022-07-22T02:30:34;102172.03;;;17.23;82.17
45523;BME280;31254;51.680;5.394;2022-07-22T02:33:03;102169.97;;;17.25;82.33
45523;BME280;31254;51.680;5.394;2022-07-22T02:35:34;102166.88;;;17.28;82.16
45523;BME280;31254;51.680;5.394;2022-07-22T02:38:02;102160.53;;;17.27;82.10
45523;BME280;31254;51.680;5.394;2022-07-22T02:40:29;102150.03;;;17.31;82.35
45523;BME280;31254;51.680;5.394;2022-07-22T02:42:56;102122.69;;;17.11;82.14
45523;BME280;31254;51.680;5.394;2022-07-22T02:45:22;102161.91;;;17.31;82.02
45523;BME280;31254;51.680;5.394;2022-07-22T02:47:52;102142.72;;;17.22;81.74
45523;BME280;31254;51.680;5.394;2022-07-22T02:50:22;102133.22;;;17.16;81.92
45523;BME280;31254;51.680;5.394;2022-07-22T02:52:49;102151.75;;;17.32;81.82
45523;BME280;31254;51.680;5.394;2022-07-22T02:55:19;102163.16;;;17.37;81.66
45523;BME280;31254;51.680;5.394;2022-07-22T02:57:46;102163.00;;;17.39;81.72
45523;BME280;31254;51.680;5.394;2022-07-22T03:00:13;102157.66;;;17.37;81.49
45523;BME280;31254;51.680;5.394;2022-07-22T03:02:43;102128.56;;;17.16;81.40
45523;BME280;31254;51.680;5.394;2022-07-22T03:05:09;102161.25;;;17.38;81.20
45523;BME280;31254;51.680;5.394;2022-07-22T03:07:36;102159.16;;;17.31;81.47
45523;BME280;31254;51.680;5.394;2022-07-22T03:10:03;102158.09;;;17.24;81.48
45523;BME280;31254;51.680;5.394;2022-07-22T03:12:33;102151.66;;;17.15;81.65
45523;BME280;31254;51.680;5.394;2022-07-22T03:15:00;102148.19;;;17.13;81.79
45523;BME280;31254;51.680;5.394;2022-07-22T03:17:33;102155.28;;;17.16;81.86
45523;BME280;31254;51.680;5.394;2022-07-22T03:20:02;102156.13;;;17.16;81.75
45523;BME280;31254;51.680;5.394;2022-07-22T03:22:31;102156.84;;;17.18;81.90
45523;BME280;31254;51.680;5.394;2022-07-22T03:24:59;102142.50;;;17.15;82.05
45523;BME280;31254;51.680;5.394;2022-07-22T03:27:26;102145.63;;;17.20;81.78
45523;BME280;31254;51.680;5.394;2022-07-22T03:29:53;102147.53;;;17.20;81.88
45523;BME280;31254;51.680;5.394;2022-07-22T03:32:20;102142.19;;;17.18;81.85
45523;BME280;31254;51.680;5.394;2022-07-22T03:34:46;102144.63;;;17.21;81.82
45523;BME280;31254;51.680;5.394;2022-07-22T03:37:13;102146.38;;;17.22;81.71
45523;BME280;31254;51.680;5.394;2022-07-22T03:39:40;102144.25;;;17.16;81.80
45523;BME280;31254;51.680;5.394;2022-07-22T03:42:06;102138.75;;;17.16;81.68
45523;BME280;31254;51.680;5.394;2022-07-22T03:44:33;102148.22;;;17.22;81.74
45523;BME280;31254;51.680;5.394;2022-07-22T03:47:00;102149.97;;;17.23;81.72
45523;BME280;31254;51.680;5.394;2022-07-22T03:49:30;102118.53;;;17.07;81.84
45523;BME280;31254;51.680;5.394;2022-07-22T03:51:57;102151.41;;;17.27;81.79
45523;BME280;31254;51.680;5.394;2022-07-22T03:54:29;102148.81;;;17.25;81.85
45523;BME280;31254;51.680;5.394;2022-07-22T03:56:56;102155.53;;;17.31;81.65
45523;BME280;31254;51.680;5.394;2022-07-22T03:59:22;102148.63;;;17.27;82.02
45523;BME280;31254;51.680;5.394;2022-07-22T04:01:51;102158.13;;;17.32;82.00
45523;BME280;31254;51.680;5.394;2022-07-22T04:04:21;102148.28;;;17.30;82.01
45523;BME280;31254;51.680;5.394;2022-07-22T04:06:50;102158.81;;;17.34;82.16
45523;BME280;31254;51.680;5.394;2022-07-22T04:09:22;102160.78;;;17.42;81.95
45523;BME280;31254;51.680;5.394;2022-07-22T04:11:51;102145.66;;;17.46;81.87
45523;BME280;31254;51.680;5.394;2022-07-22T04:14:22;102161.47;;;17.44;81.69
45523;BME280;31254;51.680;5.394;2022-07-22T04:16:48;102131.22;;;17.26;81.85
45523;BME280;31254;51.680;5.394;2022-07-22T04:19:15;102159.44;;;17.46;81.97
45523;BME280;31254;51.680;5.394;2022-07-22T04:21:42;102159.28;;;17.48;81.96
45523;BME280;31254;51.680;5.394;2022-07-22T04:24:09;102162.41;;;17.53;81.88
45523;BME280;31254;51.680;5.394;2022-07-22T04:26:35;102152.53;;;17.50;81.43
45523;BME280;31254;51.680;5.394;2022-07-22T04:29:04;102159.31;;;17.56;81.71
45523;BME280;31254;51.680;5.394;2022-07-22T04:31:31;102155.19;;;17.60;80.92
45523;BME280;31254;51.680;5.394;2022-07-22T04:33:58;102156.75;;;17.63;80.77
45523;BME280;31254;51.680;5.394;2022-07-22T04:36:25;102146.75;;;17.62;81.18
45523;BME280;31254;51.680;5.394;2022-07-22T04:38:55;102150.19;;;17.64;81.06
45523;BME280;31254;51.680;5.394;2022-07-22T04:41:22;102120.69;;;17.56;81.00
45523;BME280;31254;51.680;5.394;2022-07-22T04:43:49;102142.16;;;17.70;80.83
45523;BME280;31254;51.680;5.394;2022-07-22T04:46:15;102145.25;;;17.76;80.80
45523;BME280;31254;51.680;5.394;2022-07-22T04:48:45;102134.22;;;17.76;80.66
45523;BME280;31254;51.680;5.394;2022-07-22T04:51:11;102138.03;;;17.83;80.29
45523;BME280;31254;51.680;5.394;2022-07-22T04:53:38;102144.50;;;17.92;80.07
45523;BME280;31254;51.680;5.394;2022-07-22T04:56:13;102133.22;;;17.85;79.81
45523;BME280;31254;51.680;5.394;2022-07-22T04:58:39;102143.44;;;17.93;79.75
45523;BME280;31254;51.680;5.394;2022-07-22T05:01:07;102127.78;;;17.93;79.61
45523;BME280;31254;51.680;5.394;2022-07-22T05:03:33;102138.84;;;18.01;79.51
45523;BME280;31254;51.680;5.394;2022-07-22T05:06:01;102138.84;;;18.01;79.47
45523;BME280;31254;51.680;5.394;2022-07-22T05:08:27;102131.94;;;18.05;79.14
45523;BME280;31254;51.680;5.394;2022-07-22T05:10:56;102137.13;;;18.08;79.02
45523;BME280;31254;51.680;5.394;2022-07-22T05:13:22;102129.19;;;18.14;79.10
45523;BME280;31254;51.680;5.394;2022-07-22T05:15:52;102130.44;;;18.19;78.91
45523;BME280;31254;51.680;5.394;2022-07-22T05:18:18;102138.72;;;18.27;78.76
45523;BME280;31254;51.680;5.394;2022-07-22T05:20:45;102087.94;;;18.04;78.40
45523;BME280;31254;51.680;5.394;2022-07-22T05:23:14;102136.00;;;18.44;78.53
45523;BME280;31254;51.680;5.394;2022-07-22T05:25:40;102138.75;;;18.52;78.46
45523;BME280;31254;51.680;5.394;2022-07-22T05:28:07;102135.81;;;18.62;78.10
45523;BME280;31254;51.680;5.394;2022-07-22T05:30:34;102126.50;;;18.71;77.52
45523;BME280;31254;51.680;5.394;2022-07-22T05:33:00;102140.00;;;18.91;76.85
45523;BME280;31254;51.680;5.394;2022-07-22T05:35:27;102130.31;;;18.95;76.47
45523;BME280;31254;51.680;5.394;2022-07-22T05:37:58;102138.41;;;19.13;76.00
45523;BME280;31254;51.680;5.394;2022-07-22T05:40:25;102137.72;;;19.19;75.35
45523;BME280;31254;51.680;5.394;2022-07-22T05:42:52;102142.16;;;19.36;75.29
45523;BME280;31254;51.680;5.394;2022-07-22T05:45:18;102140.44;;;19.44;74.70
45523;BME280;31254;51.680;5.394;2022-07-22T05:47:45;102143.69;;;19.55;74.39
45523;BME280;31254;51.680;5.394;2022-07-22T05:50:12;102151.13;;;19.55;73.71
45523;BME280;31254;51.680;5.394;2022-07-22T05:52:38;102145.06;;;19.51;73.81
45523;BME280;31254;51.680;5.394;2022-07-22T05:55:06;102146.44;;;19.55;73.46
45523;BME280;31254;51.680;5.394;2022-07-22T05:57:33;102149.00;;;19.65;73.34
45523;BME280;31254;51.680;5.394;2022-07-22T06:00:00;102144.81;;;19.69;72.97
45523;BME280;31254;51.680;5.394;2022-07-22T06:02:27;102127.53;;;19.76;72.29
45523;BME280;31254;51.680;5.394;2022-07-22T06:04:55;102139.53;;;19.99;71.82
45523;BME280;31254;51.680;5.394;2022-07-22T06:07:21;102144.81;;;20.17;70.88
45523;BME280;31254;51.680;5.394;2022-07-22T06:09:48;102124.81;;;20.30;70.26
45523;BME280;31254;51.680;5.394;2022-07-22T06:12:15;102137.53;;;20.71;68.63
45523;BME280;31254;51.680;5.394;2022-07-22T06:14:42;102142.38;;;20.92;67.94
45523;BME280;31254;51.680;5.394;2022-07-22T06:17:13;102144.88;;;21.02;67.29
45523;BME280;31254;51.680;5.394;2022-07-22T06:19:41;102147.66;;;21.02;67.15
45523;BME280;31254;51.680;5.394;2022-07-22T06:22:08;102145.06;;;21.00;67.30
45523;BME280;31254;51.680;5.394;2022-07-22T06:24:35;102139.44;;;21.23;67.11
45523;BME280;31254;51.680;5.394;2022-07-22T06:27:02;102131.63;;;22.38;63.02
45523;BME280;31254;51.680;5.394;2022-07-22T06:29:28;102123.41;;;23.58;59.29
45523;BME280;31254;51.680;5.394;2022-07-22T06:31:57;102134.44;;;23.38;59.07
45523;BME280;31254;51.680;5.394;2022-07-22T06:34:24;102141.03;;;22.58;60.84
45523;BME280;31254;51.680;5.394;2022-07-22T06:36:51;102139.22;;;22.14;61.44
45523;BME280;31254;51.680;5.394;2022-07-22T06:39:17;102147.47;;;21.71;62.81
45523;BME280;31254;51.680;5.394;2022-07-22T06:41:44;102144.94;;;21.46;63.42
45523;BME280;31254;51.680;5.394;2022-07-22T06:44:11;102146.66;;;21.47;63.44
45523;BME280;31254;51.680;5.394;2022-07-22T06:46:37;102142.28;;;21.68;62.42
45523;BME280;31254;51.680;5.394;2022-07-22T06:49:09;102135.75;;;21.90;62.04
45523;BME280;31254;51.680;5.394;2022-07-22T06:51:38;102138.94;;;22.09;61.16
45523;BME280;31254;51.680;5.394;2022-07-22T06:54:05;102128.06;;;23.15;58.56
45523;BME280;31254;51.680;5.394;2022-07-22T06:56:32;102114.56;;;25.31;52.84
45523;BME280;31254;51.680;5.394;2022-07-22T06:59:01;102130.69;;;26.39;50.05
45523;BME280;31254;51.680;5.394;2022-07-22T07:01:30;102130.69;;;25.29;52.49
45523;BME280;31254;51.680;5.394;2022-07-22T07:04:01;102129.81;;;24.61;53.71
45523;BME280;31254;51.680;5.394;2022-07-22T07:06:28;102085.63;;;23.83;54.72
45523;BME280;31254;51.680;5.394;2022-07-22T07:08:55;102114.72;;;23.81;54.80
45523;BME280;31254;51.680;5.394;2022-07-22T07:11:25;102128.13;;;23.57;54.95
45523;BME280;31254;51.680;5.394;2022-07-22T07:13:51;102138.19;;;23.23;55.88
45523;BME280;31254;51.680;5.394;2022-07-22T07:16:18;102140.03;;;23.16;55.87
45523;BME280;31254;51.680;5.394;2022-07-22T07:18:45;102142.31;;;23.06;55.73
45523;BME280;31254;51.680;5.394;2022-07-22T07:21:12;102123.91;;;23.74;53.99
45523;BME280;31254;51.680;5.394;2022-07-22T07:23:39;102111.94;;;25.49;49.76
45523;BME280;31254;51.680;5.394;2022-07-22T07:26:09;102108.38;;;26.33;47.73
45523;BME280;31254;51.680;5.394;2022-07-22T07:28:36;102118.66;;;26.71;45.74
45523;BME280;31254;51.680;5.394;2022-07-22T07:31:03;102115.56;;;25.63;47.86
45523;BME280;31254;51.680;5.394;2022-07-22T07:33:34;102110.59;;;24.18;50.54
45523;BME280;31254;51.680;5.394;2022-07-22T07:36:02;102112.56;;;23.76;51.77
45523;BME280;31254;51.680;5.394;2022-07-22T07:38:31;102112.41;;;23.43;52.55
45523;BME280;31254;51.680;5.394;2022-07-22T07:40:58;102124.03;;;23.18;53.08
45523;BME280;31254;51.680;5.394;2022-07-22T07:43:24;102127.34;;;22.85;53.98
45523;BME280;31254;51.680;5.394;2022-07-22T07:45:51;102127.50;;;22.77;54.18
45523;BME280;31254;51.680;5.394;2022-07-22T07:48:18;102134.53;;;22.73;53.52
45523;BME280;31254;51.680;5.394;2022-07-22T07:50:44;102136.13;;;22.60;53.21
45523;BME280;31254;51.680;5.394;2022-07-22T07:53:15;102132.22;;;22.76;53.32
45523;BME280;31254;51.680;5.394;2022-07-22T07:55:45;102127.00;;;23.16;52.25
45523;BME280;31254;51.680;5.394;2022-07-22T07:58:14;102130.56;;;24.15;50.17
45523;BME280;31254;51.680;5.394;2022-07-22T08:00:41;102126.75;;;24.43;49.23
45523;BME280;31254;51.680;5.394;2022-07-22T08:03:12;102122.75;;;24.86;47.83
45523;BME280;31254;51.680;5.394;2022-07-22T08:05:39;102131.53;;;26.01;45.24
45523;BME280;31254;51.680;5.394;2022-07-22T08:08:07;102115.66;;;26.02;44.55
45523;BME280;31254;51.680;5.394;2022-07-22T08:10:40;102120.53;;;27.27;41.87
45523;BME280;31254;51.680;5.394;2022-07-22T08:13:28;102108.56;;;29.32;38.28
45523;BME280;31254;51.680;5.394;2022-07-22T08:15:56;102100.63;;;30.22;36.08
45523;BME280;31254;51.680;5.394;2022-07-22T08:18:23;102105.72;;;30.08;36.07
45523;BME280;31254;51.680;5.394;2022-07-22T08:20:54;102098.06;;;30.84;35.32
45523;BME280;31254;51.680;5.394;2022-07-22T08:23:21;102102.09;;;31.05;35.09
45523;BME280;31254;51.680;5.394;2022-07-22T08:25:47;102101.31;;;31.48;34.32
45523;BME280;31254;51.680;5.394;2022-07-22T08:28:14;102056.41;;;31.42;33.61
45523;BME280;31254;51.680;5.394;2022-07-22T08:30:41;102090.94;;;32.75;32.06
45523;BME280;31254;51.680;5.394;2022-07-22T08:33:11;102097.94;;;33.42;30.55
45523;BME280;31254;51.680;5.394;2022-07-22T08:35:37;102092.53;;;34.09;30.06
45523;BME280;31254;51.680;5.394;2022-07-22T08:38:04;102097.00;;;33.31;30.57
45523;BME280;31254;51.680;5.394;2022-07-22T08:40:33;102097.56;;;31.60;32.57
45523;BME280;31254;51.680;5.394;2022-07-22T08:43:01;102088.44;;;31.13;33.16
45523;BME280;31254;51.680;5.394;2022-07-22T08:45:30;102083.06;;;30.78;33.77
45523;BME280;31254;51.680;5.394;2022-07-22T08:47:58;102065.91;;;29.47;35.95
45523;BME280;31254;51.680;5.394;2022-07-22T08:50:25;102082.41;;;28.42;37.90
45523;BME280;31254;51.680;5.394;2022-07-22T08:52:53;102087.41;;;27.98;38.33
45523;BME280;31254;51.680;5.394;2022-07-22T08:55:19;102094.25;;;29.10;35.98
45523;BME280;31254;51.680;5.394;2022-07-22T08:57:47;102070.66;;;27.73;38.45
45523;BME280;31254;51.680;5.394;2022-07-22T09:00:16;102083.28;;;27.02;39.79
45523;BME280;31254;51.680;5.394;2022-07-22T09:02:43;102081.38;;;26.45;40.80
45523;BME280;31254;51.680;5.394;2022-07-22T09:05:11;102087.69;;;26.34;41.84
45523;BME280;31254;51.680;5.394;2022-07-22T09:08:00;102088.47;;;27.23;40.26
45523;BME280;31254;51.680;5.394;2022-07-22T09:10:34;102081.59;;;26.75;39.47
45523;BME280;31254;51.680;5.394;2022-07-22T09:13:07;102083.56;;;26.43;40.64
45523;BME280;31254;51.680;5.394;2022-07-22T09:15:36;102082.50;;;26.05;40.77
45523;BME280;31254;51.680;5.394;2022-07-22T09:18:04;102095.44;;;25.93;41.35
45523;BME280;31254;51.680;5.394;2022-07-22T09:20:34;102103.19;;;25.91;41.62
45523;BME280;31254;51.680;5.394;2022-07-22T09:23:01;102093.56;;;25.80;41.96
45523;BME280;31254;51.680;5.394;2022-07-22T09:25:38;102084.44;;;25.46;42.18
45523;BME280;31254;51.680;5.394;2022-07-22T09:30:51;102089.03;;;24.94;43.40
45523;BME280;31254;51.680;5.394;2022-07-22T09:33:21;102086.69;;;24.71;43.48
45523;BME280;31254;51.680;5.394;2022-07-22T09:36:01;102088.38;;;24.58;43.63
45523;BME280;31254;51.680;5.394;2022-07-22T09:38:31;102082.78;;;24.38;44.30
45523;BME280;31254;51.680;5.394;2022-07-22T09:40:59;102085.97;;;24.35;44.10
45523;BME280;31254;51.680;5.394;2022-07-22T09:43:26;102083.81;;;24.31;44.40
45523;BME280;31254;51.680;5.394;2022-07-22T09:45:59;102071.75;;;23.97;44.72
45523;BME280;31254;51.680;5.394;2022-07-22T09:48:27;102070.47;;;23.99;44.81
45523;BME280;31254;51.680;5.394;2022-07-22T09:50:56;102059.94;;;23.88;45.08
45523;BME280;31254;51.680;5.394;2022-07-22T09:53:26;102070.09;;;23.61;46.00
45523;BME280;31254;51.680;5.394;2022-07-22T09:55:57;102058.19;;;23.39;45.92
45523;BME280;31254;51.680;5.394;2022-07-22T09:58:27;102079.53;;;23.66;46.05
45523;BME280;31254;51.680;5.394;2022-07-22T10:01:04;102064.06;;;23.57;45.77
45523;BME280;31254;51.680;5.394;2022-07-22T10:03:33;102072.03;;;23.60;45.51
45523;BME280;31254;51.680;5.394;2022-07-22T10:06:04;102069.88;;;23.62;45.84
45523;BME280;31254;51.680;5.394;2022-07-22T10:08:32;102067.97;;;23.69;45.50
45523;BME280;31254;51.680;5.394;2022-07-22T10:11:03;102070.03;;;23.96;44.97
45523;BME280;31254;51.680;5.394;2022-07-22T10:13:31;102075.97;;;24.61;44.32
45523;BME280;31254;51.680;5.394;2022-07-22T10:15:58;102075.63;;;25.49;42.44
45523;BME280;31254;51.680;5.394;2022-07-22T10:18:29;102073.91;;;26.07;41.23
45523;BME280;31254;51.680;5.394;2022-07-22T10:21:07;102070.06;;;26.33;40.92
45523;BME280;31254;51.680;5.394;2022-07-22T10:23:34;102085.75;;;25.96;41.08
45523;BME280;31254;51.680;5.394;2022-07-22T10:26:02;102086.94;;;25.75;42.06
45523;BME280;31254;51.680;5.394;2022-07-22T10:28:34;102077.19;;;25.90;41.63
45523;BME280;31254;51.680;5.394;2022-07-22T10:31:25;102073.63;;;26.15;41.94
45523;BME280;31254;51.680;5.394;2022-07-22T10:33:54;102074.19;;;26.56;41.21
45523;BME280;31254;51.680;5.394;2022-07-22T10:36:39;102077.38;;;26.91;41.13
45523;BME280;31254;51.680;5.394;2022-07-22T10:39:12;102074.81;;;26.90;40.71
45523;BME280;31254;51.680;5.394;2022-07-22T10:41:44;102068.22;;;27.03;41.01
45523;BME280;31254;51.680;5.394;2022-07-22T10:44:47;102075.69;;;27.09;40.91
45523;BME280;31254;51.680;5.394;2022-07-22T10:47:52;102073.97;;;27.08;40.36
45523;BME280;31254;51.680;5.394;2022-07-22T10:53:13;102075.78;;;26.77;40.56
45523;BME280;31254;51.680;5.394;2022-07-22T11:01:13;102061.06;;;26.56;40.76
45523;BME280;31254;51.680;5.394;2022-07-22T11:03:45;102057.47;;;26.49;40.02
45523;BME280;31254;51.680;5.394;2022-07-22T11:08:52;102049.31;;;26.48;39.99
45523;BME280;31254;51.680;5.394;2022-07-22T11:11:31;102054.22;;;26.77;40.31
45523;BME280;31254;51.680;5.394;2022-07-22T11:13:59;102050.16;;;26.98;40.06
45523;BME280;31254;51.680;5.394;2022-07-22T11:16:29;102037.25;;;26.97;40.33
45523;BME280;31254;51.680;5.394;2022-07-22T11:21:26;102045.03;;;27.39;39.24
45523;BME280;31254;51.680;5.394;2022-07-22T11:23:59;102056.63;;;26.99;39.45
45523;BME280;31254;51.680;5.394;2022-07-22T11:26:42;102039.38;;;27.02;38.91
45523;BME280;31254;51.680;5.394;2022-07-22T11:29:17;102052.41;;;26.64;39.58
45523;BME280;31254;51.680;5.394;2022-07-22T11:31:48;102048.97;;;26.62;40.04
45523;BME280;31254;51.680;5.394;2022-07-22T11:34:16;102038.56;;;26.44;39.58
45523;BME280;31254;51.680;5.394;2022-07-22T11:36:45;102041.72;;;26.80;39.35
45523;BME280;31254;51.680;5.394;2022-07-22T11:39:13;102035.69;;;27.02;39.13
45523;BME280;31254;51.680;5.394;2022-07-22T11:41:40;102036.13;;;26.80;38.86
45523;BME280;31254;51.680;5.394;2022-07-22T11:44:07;102034.53;;;26.91;38.87
45523;BME280;31254;51.680;5.394;2022-07-22T11:46:39;102023.19;;;26.86;38.88
45523;BME280;31254;51.680;5.394;2022-07-22T11:49:12;102001.88;;;27.03;39.34
45523;BME280;31254;51.680;5.394;2022-07-22T11:51:39;102021.75;;;27.39;38.96
45523;BME280;31254;51.680;5.394;2022-07-22T11:54:06;101995.72;;;27.13;39.38
45523;BME280;31254;51.680;5.394;2022-07-22T11:56:34;102006.72;;;26.71;39.55
45523;BME280;31254;51.680;5.394;2022-07-22T11:59:04;102019.06;;;26.63;39.42
45523;BME280;31254;51.680;5.394;2022-07-22T12:01:36;101993.03;;;26.37;39.52
45523;BME280;31254;51.680;5.394;2022-07-22T12:04:05;101991.75;;;26.33;39.75
45523;BME280;31254;51.680;5.394;2022-07-22T12:06:34;101984.03;;;26.03;39.84
45523;BME280;31254;51.680;5.394;2022-07-22T12:09:10;101977.72;;;25.76;40.51
45523;BME280;31254;51.680;5.394;2022-07-22T12:11:42;101978.47;;;25.58;40.62
45523;BME280;31254;51.680;5.394;2022-07-22T12:14:20;101974.38;;;25.61;40.97
45523;BME280;31254;51.680;5.394;2022-07-22T12:19:22;101966.72;;;25.81;40.68
45523;BME280;31254;51.680;5.394;2022-07-22T12:21:53;101981.78;;;26.44;39.73
45523;BME280;31254;51.680;5.394;2022-07-22T12:24:27;101969.44;;;26.52;39.45
45523;BME280;31254;51.680;5.394;2022-07-22T12:26:56;101973.31;;;26.51;39.74
45523;BME280;31254;51.680;5.394;2022-07-22T12:29:27;101965.16;;;26.49;39.15
45523;BME280;31254;51.680;5.394;2022-07-22T12:31:56;101958.66;;;26.55;39.58
45523;BME280;31254;51.680;5.394;2022-07-22T12:34:42;101967.56;;;26.45;39.08
45523;BME280;31254;51.680;5.394;2022-07-22T12:37:23;101970.75;;;26.49;39.72
45523;BME280;31254;51.680;5.394;2022-07-22T12:42:44;101947.97;;;26.71;39.06
45523;BME280;31254;51.680;5.394;2022-07-22T12:45:13;101946.66;;;26.73;39.10
45523;BME280;31254;51.680;5.394;2022-07-22T12:47:52;101971.22;;;27.08;39.37
45523;BME280;31254;51.680;5.394;2022-07-22T12:50:27;101977.44;;;26.92;39.26
45523;BME280;31254;51.680;5.394;2022-07-22T12:53:00;101966.41;;;26.78;39.59
45523;BME280;31254;51.680;5.394;2022-07-22T12:55:56;101973.03;;;26.59;39.64
45523;BME280;31254;51.680;5.394;2022-07-22T12:58:29;101965.75;;;26.33;40.02
45523;BME280;31254;51.680;5.394;2022-07-22T13:01:00;101963.94;;;26.38;40.19
45523;BME280;31254;51.680;5.394;2022-07-22T13:03:30;101954.69;;;26.63;39.27
45523;BME280;31254;51.680;5.394;2022-07-22T13:06:03;101959.00;;;26.66;39.68
45523;BME280;31254;51.680;5.394;2022-07-22T13:08:38;101963.56;;;26.60;39.95
45523;BME280;31254;51.680;5.394;2022-07-22T13:11:11;101957.97;;;26.35;39.81
45523;BME280;31254;51.680;5.394;2022-07-22T13:13:40;101950.38;;;26.42;39.55
45523;BME280;31254;51.680;5.394;2022-07-22T13:16:09;101943.41;;;26.51;39.29
45523;BME280;31254;51.680;5.394;2022-07-22T13:18:36;101948.75;;;26.53;39.48
45523;BME280;31254;51.680;5.394;2022-07-22T13:21:02;101951.13;;;26.31;39.21